Time;durP1;ratioP1;P1;durP2;ratioP2;P2;SDS_P1;SDS_P2;PMS_P1;PMS_P2;Temp;Humidity;BMP_temperature;BMP_pressure;BME280_temperature;BME280_humidity;BME280_pressure;Samples;Min_cycle;Max_cycle;Signal;HPM_P1;HPM_P2
2021/03/03 00:00:12;;;;;;;;;;;19.30;38.20;;;;;;500343;237;1044;-54
2021/03/03 00:02:14;;;;;;;;;;;19.30;38.10;;;;;;500308;237;1376;-54
2021/03/03 00:04:15;;;;;;;;;;;19.30;36.80;;;;;;500395;237;1083;-54
2021/03/03 00:06:16;;;;;;;;;;;19.40;38.20;;;;;;500295;237;1184;-54
2021/03/03 00:08:18;;;;;;;;;;;19.40;38.20;;;;;;500460;237;1036;-54
2021/03/03 00:10:19;;;;;;;;;;;19.40;38.10;;;;;;500386;237;2175;-54
2021/03/03 00:12:20;;;;;;;;;;;19.40;38.20;;;;;;500363;237;1164;-54
2021/03/03 00:14:21;;;;;;;;;;;19.40;38.10;;;;;;500388;237;1117;-54
2021/03/03 00:16:23;;;;;;;;;;;19.40;38.10;;;;;;500366;237;1245;-54
2021/03/03 00:18:24;;;;;;;;;;;19.40;38.10;;;;;;500400;237;1138;-54
2021/03/03 00:20:25;;;;;;;;;;;19.40;38.10;;;;;;500337;237;1250;-54
2021/03/03 00:22:26;;;;;;;;;;;19.40;38.10;;;;;;500258;237;1205;-54
2021/03/03 00:24:28;;;;;;;;;;;19.40;38.10;;;;;;500469;237;1055;-54
2021/03/03 00:26:29;;;;;;;;;;;19.40;38.10;;;;;;500258;237;1147;-54
2021/03/03 00:28:30;;;;;;;;;;;19.40;38.10;;;;;;500332;237;1032;-54
2021/03/03 00:30:32;;;;;;;;;;;19.40;38.10;;;;;;500246;237;2148;-54
2021/03/03 00:32:33;;;;;;;;;;;19.40;38.10;;;;;;500355;237;1171;-54
2021/03/03 00:34:34;;;;;;;;;;;19.50;38.10;;;;;;500258;237;1236;-54
2021/03/03 00:36:35;;;;;;;;;;;19.40;38.00;;;;;;500254;237;1316;-54
2021/03/03 00:38:37;;;;;;;;;;;19.40;38.00;;;;;;500348;237;1111;-54
2021/03/03 00:40:38;;;;;;;;;;;19.40;38.00;;;;;;500415;237;1031;-54
2021/03/03 00:42:39;;;;;;;;;;;19.50;38.00;;;;;;500398;237;1266;-54
2021/03/03 00:44:41;;;;;;;;;;;19.50;38.00;;;;;;500493;237;1047;-54
2021/03/03 00:46:42;;;;;;;;;;;19.50;38.00;;;;;;500426;237;1024;-54
2021/03/03 00:48:43;;;;;;;;;;;19.50;38.00;;;;;;500360;237;1045;-54
2021/03/03 00:50:44;;;;;;;;;;;19.50;38.00;;;;;;500474;237;2188;-54
2021/03/03 00:52:46;;;;;;;;;;;19.50;38.00;;;;;;500308;237;963;-54
2021/03/03 00:54:47;;;;;;;;;;;19.50;38.00;;;;;;500441;237;1059;-54
2021/03/03 00:56:48;;;;;;;;;;;19.50;38.00;;;;;;500340;237;1163;-54
2021/03/03 00:58:50;;;;;;;;;;;19.50;37.90;;;;;;500527;237;991;-54
2021/03/03 01:00:51;;;;;;;;;;;19.50;37.90;;;;;;500314;237;1235;-54
2021/03/03 01:02:53;;;;;;;;;;;19.50;37.90;;;;;;500305;237;1156;-54
2021/03/03 01:04:53;;;;;;;;;;;19.50;37.90;;;;;;500387;237;2214;-54
2021/03/03 01:06:55;;;;;;;;;;;19.50;37.90;;;;;;500432;237;1051;-54
2021/03/03 01:08:56;;;;;;;;;;;19.50;37.90;;;;;;500478;237;1056;-54
2021/03/03 01:10:57;;;;;;;;;;;19.50;37.90;;;;;;500348;237;2140;-54
2021/03/03 01:12:59;;;;;;;;;;;19.50;37.90;;;;;;500412;237;1126;-54
2021/03/03 01:15:00;;;;;;;;;;;19.50;37.90;;;;;;500456;237;1019;-54
2021/03/03 01:17:01;;;;;;;;;;;19.50;37.90;;;;;;500425;237;1230;-54
2021/03/03 01:19:02;;;;;;;;;;;19.60;37.90;;;;;;500385;237;1064;-54
2021/03/03 01:21:04;;;;;;;;;;;19.50;37.90;;;;;;500321;237;1179;-54
2021/03/03 01:23:05;;;;;;;;;;;19.60;37.90;;;;;;500410;237;1305;-54
2021/03/03 01:25:06;;;;;;;;;;;19.60;37.90;;;;;;500477;237;1048;-54
2021/03/03 01:27:07;;;;;;;;;;;19.60;37.90;;;;;;500284;237;1174;-54
2021/03/03 01:29:09;;;;;;;;;;;19.60;37.90;;;;;;500283;237;1057;-54
2021/03/03 01:31:10;;;;;;;;;;;19.60;37.90;;;;;;500308;237;2113;-55
2021/03/03 01:33:11;;;;;;;;;;;19.60;37.90;;;;;;500361;237;1057;-54
2021/03/03 01:35:13;;;;;;;;;;;19.60;37.90;;;;;;500430;237;1022;-54
2021/03/03 01:37:14;;;;;;;;;;;19.60;37.90;;;;;;500318;237;1197;-54
2021/03/03 01:39:15;;;;;;;;;;;19.60;37.90;;;;;;500467;237;1080;-54
2021/03/03 01:41:16;;;;;;;;;;;19.60;37.80;;;;;;500391;237;1063;-55
2021/03/03 01:43:18;;;;;;;;;;;19.60;37.80;;;;;;500415;237;1180;-54
2021/03/03 01:45:19;;;;;;;;;;;19.60;37.80;;;;;;500619;237;1136;-54
2021/03/03 01:47:20;;;;;;;;;;;19.60;37.80;;;;;;500425;237;1179;-54
2021/03/03 01:49:22;;;;;;;;;;;19.60;37.80;;;;;;500386;237;1072;-54
2021/03/03 01:51:23;;;;;;;;;;;19.60;37.80;;;;;;500354;237;2120;-54
2021/03/03 01:53:24;;;;;;;;;;;19.60;37.80;;;;;;500338;237;958;-55
2021/03/03 01:55:25;;;;;;;;;;;19.60;37.80;;;;;;500379;237;1038;-54
2021/03/03 01:57:27;;;;;;;;;;;19.70;37.80;;;;;;500353;237;1348;-54
2021/03/03 01:59:28;;;;;;;;;;;19.70;37.80;;;;;;500460;237;1072;-54
2021/03/03 02:01:30;;;;;;;;;;;19.70;37.80;;;;;;500505;237;1112;-54
2021/03/03 02:03:31;;;;;;;;;;;19.70;37.70;;;;;;500432;237;1095;-55
2021/03/03 02:05:32;;;;;;;;;;;19.70;37.80;;;;;;500486;237;1210;-54
2021/03/03 02:07:33;;;;;;;;;;;19.70;37.80;;;;;;500340;237;1170;-54
2021/03/03 02:09:35;;;;;;;;;;;19.70;37.80;;;;;;500546;237;1049;-54
2021/03/03 02:11:36;;;;;;;;;;;19.70;37.70;;;;;;500415;237;2117;-54
2021/03/03 02:13:37;;;;;;;;;;;19.70;37.70;;;;;;500397;237;1159;-54
2021/03/03 02:15:39;;;;;;;;;;;19.70;37.70;;;;;;500319;237;1315;-54
2021/03/03 02:17:40;;;;;;;;;;;19.70;37.70;;;;;;500373;237;1255;-54
2021/03/03 02:19:41;;;;;;;;;;;19.70;37.80;;;;;;500362;237;1026;-54
2021/03/03 02:21:43;;;;;;;;;;;19.70;37.80;;;;;;500331;237;1341;-54
2021/03/03 02:23:44;;;;;;;;;;;19.70;37.80;;;;;;500414;237;1081;-54
2021/03/03 02:25:45;;;;;;;;;;;19.70;37.70;;;;;;500359;237;1037;-54
2021/03/03 02:27:47;;;;;;;;;;;19.70;36.40;;;;;;500527;237;1209;-54
2021/03/03 02:29:48;;;;;;;;;;;19.70;37.70;;;;;;500494;237;1051;-54
2021/03/03 02:31:49;;;;;;;;;;;19.70;37.70;;;;;;500346;237;2179;-55
2021/03/03 02:33:50;;;;;;;;;;;19.70;37.70;;;;;;500389;237;1041;-54
2021/03/03 02:35:52;;;;;;;;;;;19.70;37.70;;;;;;500520;237;1043;-53
2021/03/03 02:37:53;;;;;;;;;;;19.70;37.70;;;;;;500354;237;1085;-54
2021/03/03 02:39:54;;;;;;;;;;;19.70;37.70;;;;;;500358;237;1229;-54
2021/03/03 02:41:55;;;;;;;;;;;19.70;37.70;;;;;;500223;237;1310;-54
2021/03/03 02:43:57;;;;;;;;;;;19.80;37.80;;;;;;500318;237;1111;-54
2021/03/03 02:45:58;;;;;;;;;;;19.70;37.70;;;;;;500402;237;1031;-54
2021/03/03 02:47:59;;;;;;;;;;;19.80;37.80;;;;;;500417;237;1051;-54
2021/03/03 02:50:01;;;;;;;;;;;19.70;37.70;;;;;;500410;237;2131;-54
2021/03/03 02:52:02;;;;;;;;;;;19.80;37.70;;;;;;500229;237;1213;-54
2021/03/03 02:54:03;;;;;;;;;;;19.70;37.70;;;;;;500410;237;939;-54
2021/03/03 02:56:04;;;;;;;;;;;19.80;37.70;;;;;;500468;237;1381;-54
2021/03/03 02:58:06;;;;;;;;;;;19.80;37.70;;;;;;500463;237;1176;-54
2021/03/03 03:00:07;;;;;;;;;;;19.80;37.70;;;;;;500341;237;1056;-54
2021/03/03 03:02:09;;;;;;;;;;;19.80;37.70;;;;;;500177;237;1270;-54
2021/03/03 03:04:10;;;;;;;;;;;19.80;37.70;;;;;;500385;237;1220;-55
2021/03/03 03:06:11;;;;;;;;;;;19.80;37.70;;;;;;500373;237;1694;-54
2021/03/03 03:08:12;;;;;;;;;;;19.80;37.70;;;;;;500318;237;1073;-54
2021/03/03 03:10:14;;;;;;;;;;;19.80;37.70;;;;;;500494;237;2148;-54
2021/03/03 03:12:15;;;;;;;;;;;19.80;37.70;;;;;;500317;237;1150;-54
2021/03/03 03:14:16;;;;;;;;;;;19.80;37.70;;;;;;500346;237;1186;-54
2021/03/03 03:16:18;;;;;;;;;;;19.80;37.70;;;;;;500217;237;1130;-54
2021/03/03 03:18:19;;;;;;;;;;;19.80;36.30;;;;;;500398;237;1096;-54
2021/03/03 03:20:20;;;;;;;;;;;19.80;37.70;;;;;;500368;237;1058;-54
2021/03/03 03:22:23;;;;;;;;;;;19.80;37.70;;;;;;500354;237;1099;-54
2021/03/03 03:24:23;;;;;;;;;;;19.80;37.60;;;;;;500395;237;1903;-55
2021/03/03 03:26:24;;;;;;;;;;;19.80;37.60;;;;;;500461;237;1003;-54
2021/03/03 03:28:26;;;;;;;;;;;19.80;37.60;;;;;;500365;237;1179;-54
2021/03/03 03:30:27;;;;;;;;;;;19.80;37.60;;;;;;500333;237;2192;-54
2021/03/03 03:32:28;;;;;;;;;;;19.90;37.60;;;;;;500434;237;1046;-54
2021/03/03 03:34:29;;;;;;;;;;;19.80;37.60;;;;;;500404;237;992;-54
2021/03/03 03:36:31;;;;;;;;;;;19.80;37.60;;;;;;500318;237;1075;-54
2021/03/03 03:38:32;;;;;;;;;;;19.80;37.60;;;;;;500283;237;1105;-54
2021/03/03 03:40:33;;;;;;;;;;;19.90;37.60;;;;;;500282;237;1059;-54
2021/03/03 03:42:35;;;;;;;;;;;19.90;37.60;;;;;;500303;237;1071;-54
2021/03/03 03:44:36;;;;;;;;;;;19.90;37.60;;;;;;500482;237;1160;-54
2021/03/03 03:46:37;;;;;;;;;;;19.90;37.60;;;;;;500408;237;1089;-54
2021/03/03 03:48:39;;;;;;;;;;;19.90;37.60;;;;;;500381;237;1117;-54
2021/03/03 03:50:40;;;;;;;;;;;19.90;37.60;;;;;;500403;237;2136;-54
2021/03/03 03:52:41;;;;;;;;;;;19.90;37.60;;;;;;500337;237;991;-55
2021/03/03 03:54:42;;;;;;;;;;;19.90;37.60;;;;;;500357;237;1141;-55
2021/03/03 03:56:43;;;;;;;;;;;19.90;37.60;;;;;;500341;237;1046;-54
2021/03/03 03:58:45;;;;;;;;;;;19.90;37.50;;;;;;500526;237;1233;-54
2021/03/03 04:00:48;;;;;;;;;;;19.90;37.60;;;;;;500348;237;1137;-54
2021/03/03 04:02:47;;;;;;;;;;;19.90;37.60;;;;;;500401;237;2104;-54
2021/03/03 04:04:49;;;;;;;;;;;19.90;37.50;;;;;;500516;237;1010;-54
2021/03/03 04:06:50;;;;;;;;;;;19.90;37.50;;;;;;500622;237;1231;-54
2021/03/03 04:08:51;;;;;;;;;;;19.90;37.60;;;;;;500552;237;1059;-54
2021/03/03 04:10:52;;;;;;;;;;;19.90;37.50;;;;;;500595;237;2192;-54
2021/03/03 04:12:54;;;;;;;;;;;19.90;37.60;;;;;;500420;237;1079;-54
2021/03/03 04:14:55;;;;;;;;;;;19.90;37.50;;;;;;500392;237;1162;-54
2021/03/03 04:16:56;;;;;;;;;;;19.90;37.50;;;;;;500396;237;1197;-54
2021/03/03 04:18:58;;;;;;;;;;;19.90;37.50;;;;;;500345;237;1045;-54
2021/03/03 04:20:59;;;;;;;;;;;19.90;37.50;;;;;;500463;237;1140;-54
2021/03/03 04:23:00;;;;;;;;;;;19.90;37.50;;;;;;500372;237;1139;-54
2021/03/03 04:25:01;;;;;;;;;;;19.90;37.50;;;;;;500385;237;1019;-54
2021/03/03 04:27:03;;;;;;;;;;;19.90;37.50;;;;;;500420;237;1095;-55
2021/03/03 04:29:04;;;;;;;;;;;19.90;37.50;;;;;;500292;237;1206;-54
2021/03/03 04:31:05;;;;;;;;;;;19.90;37.50;;;;;;500298;237;2179;-54
2021/03/03 04:33:07;;;;;;;;;;;19.90;37.50;;;;;;500446;237;1028;-54
2021/03/03 04:35:08;;;;;;;;;;;19.90;37.50;;;;;;500636;237;1019;-54
2021/03/03 04:37:09;;;;;;;;;;;19.90;37.50;;;;;;500323;237;1059;-54
2021/03/03 04:39:10;;;;;;;;;;;19.90;37.40;;;;;;500388;237;1019;-54
2021/03/03 04:41:12;;;;;;;;;;;19.90;37.50;;;;;;500365;237;1028;-54
2021/03/03 04:43:13;;;;;;;;;;;20.00;37.50;;;;;;500381;237;1047;-54
2021/03/03 04:45:14;;;;;;;;;;;19.90;37.40;;;;;;500469;237;1217;-54
2021/03/03 04:47:16;;;;;;;;;;;19.90;37.50;;;;;;500356;237;1231;-54
2021/03/03 04:49:17;;;;;;;;;;;19.90;37.50;;;;;;500404;237;927;-54
2021/03/03 04:51:18;;;;;;;;;;;20.00;37.50;;;;;;500290;237;2136;-54
2021/03/03 04:53:21;;;;;;;;;;;19.90;37.40;;;;;;500326;237;1140;-54
2021/03/03 04:55:21;;;;;;;;;;;19.90;37.40;;;;;;500324;237;1858;-54
2021/03/03 04:57:22;;;;;;;;;;;20.00;37.50;;;;;;500195;237;1211;-54
2021/03/03 04:59:23;;;;;;;;;;;20.00;37.50;;;;;;500499;237;1118;-54
2021/03/03 05:01:24;;;;;;;;;;;20.00;37.50;;;;;;500448;237;1248;-54
2021/03/03 05:03:26;;;;;;;;;;;20.00;37.50;;;;;;500392;237;1147;-54
2021/03/03 05:05:27;;;;;;;;;;;20.00;37.40;;;;;;500263;237;1075;-54
2021/03/03 05:07:28;;;;;;;;;;;20.00;37.40;;;;;;500382;237;1201;-54
2021/03/03 05:09:30;;;;;;;;;;;20.00;37.50;;;;;;500409;237;1033;-54
2021/03/03 05:11:31;;;;;;;;;;;20.00;37.40;;;;;;500248;237;2128;-54
2021/03/03 05:13:32;;;;;;;;;;;20.00;37.50;;;;;;500357;237;1051;-54
2021/03/03 05:15:33;;;;;;;;;;;20.00;37.40;;;;;;500234;237;1286;-54
2021/03/03 05:17:35;;;;;;;;;;;20.00;37.40;;;;;;500423;237;1069;-54
2021/03/03 05:19:36;;;;;;;;;;;20.00;37.40;;;;;;500470;237;1160;-54
2021/03/03 05:21:37;;;;;;;;;;;20.00;37.40;;;;;;500414;237;1378;-54
2021/03/03 05:23:39;;;;;;;;;;;20.00;37.40;;;;;;500392;237;1183;-54
2021/03/03 05:25:40;;;;;;;;;;;20.00;37.40;;;;;;500354;237;1231;-55
2021/03/03 05:27:41;;;;;;;;;;;20.00;37.40;;;;;;500289;237;1118;-54
2021/03/03 05:29:42;;;;;;;;;;;20.00;37.40;;;;;;500098;237;1169;-54
2021/03/03 05:31:44;;;;;;;;;;;20.00;37.30;;;;;;500113;237;2196;-53
2021/03/03 05:33:45;;;;;;;;;;;20.00;37.40;;;;;;500233;237;1080;-54
2021/03/03 05:35:46;;;;;;;;;;;20.00;37.40;;;;;;500195;237;1082;-54
2021/03/03 05:37:47;;;;;;;;;;;20.00;37.40;;;;;;500288;237;1016;-54
2021/03/03 05:39:49;;;;;;;;;;;20.00;37.30;;;;;;500212;237;1178;-54
2021/03/03 05:41:50;;;;;;;;;;;20.00;37.40;;;;;;500236;237;1017;-54
2021/03/03 05:43:52;;;;;;;;;;;20.00;37.40;;;;;;500167;237;1065;-55
2021/03/03 05:45:53;;;;;;;;;;;20.00;37.30;;;;;;500199;237;1184;-54
2021/03/03 05:47:54;;;;;;;;;;;20.00;37.30;;;;;;500331;237;1049;-54
2021/03/03 05:49:56;;;;;;;;;;;20.00;37.40;;;;;;500124;237;1058;-54
2021/03/03 05:51:57;;;;;;;;;;;20.00;36.00;;;;;;500158;237;2132;-54
2021/03/03 05:53:58;;;;;;;;;;;20.00;37.40;;;;;;500228;237;1068;-54
2021/03/03 05:55:59;;;;;;;;;;;20.00;37.30;;;;;;500127;237;1071;-54
2021/03/03 05:58:01;;;;;;;;;;;20.00;37.30;;;;;;500234;237;1019;-54
2021/03/03 06:00:02;;;;;;;;;;;20.00;37.30;;;;;;500192;234;1313;-54
2021/03/03 06:02:03;;;;;;;;;;;20.00;37.30;;;;;;500146;237;1033;-54
2021/03/03 06:04:04;;;;;;;;;;;20.00;37.30;;;;;;500150;237;1036;-54
2021/03/03 06:06:06;;;;;;;;;;;20.00;37.30;;;;;;500143;237;1003;-55
2021/03/03 06:08:07;;;;;;;;;;;20.00;37.30;;;;;;500262;237;1065;-54
2021/03/03 06:10:08;;;;;;;;;;;20.10;37.30;;;;;;500250;237;1130;-54
2021/03/03 06:12:10;;;;;;;;;;;20.00;37.20;;;;;;500233;237;2184;-54
2021/03/03 06:14:11;;;;;;;;;;;20.00;37.30;;;;;;500295;237;1024;-54
2021/03/03 06:16:12;;;;;;;;;;;20.10;37.30;;;;;;500103;237;1202;-54
2021/03/03 06:18:13;;;;;;;;;;;20.10;37.30;;;;;;500248;237;1081;-54
2021/03/03 06:20:15;;;;;;;;;;;20.10;37.30;;;;;;500200;237;996;-54
2021/03/03 06:22:16;;;;;;;;;;;20.10;37.30;;;;;;500227;237;1237;-54
2021/03/03 06:24:17;;;;;;;;;;;20.10;36.00;;;;;;500235;237;1114;-54
2021/03/03 06:26:19;;;;;;;;;;;20.10;37.30;;;;;;500160;237;1167;-55
2021/03/03 06:28:20;;;;;;;;;;;20.00;37.20;;;;;;500083;237;1046;-55
2021/03/03 06:30:22;;;;;;;;;;;20.10;37.30;;;;;;499994;237;1260;-54
2021/03/03 06:32:23;;;;;;;;;;;20.10;37.30;;;;;;499912;237;2137;-55
2021/03/03 06:34:25;;;;;;;;;;;20.10;37.30;;;;;;500001;237;1088;-54
2021/03/03 06:36:26;;;;;;;;;;;20.10;37.30;;;;;;499999;237;1877;-54
2021/03/03 06:38:27;;;;;;;;;;;20.10;37.30;;;;;;499975;237;1894;-54
2021/03/03 06:40:28;;;;;;;;;;;20.10;36.00;;;;;;499931;237;1070;-55
2021/03/03 06:42:29;;;;;;;;;;;20.10;36.00;;;;;;499942;237;1040;-54
2021/03/03 06:44:31;;;;;;;;;;;20.10;37.20;;;;;;499868;237;1162;-54
2021/03/03 06:46:32;;;;;;;;;;;20.10;37.30;;;;;;499867;237;1122;-55
2021/03/03 06:48:33;;;;;;;;;;;20.10;37.30;;;;;;499953;237;1465;-54
2021/03/03 06:50:34;;;;;;;;;;;20.10;37.30;;;;;;500062;237;1078;-54
2021/03/03 06:52:36;;;;;;;;;;;20.10;37.30;;;;;;499987;237;2136;-54
2021/03/03 06:54:37;;;;;;;;;;;20.10;37.60;;;;;;499981;237;1029;-54
2021/03/03 06:56:38;;;;;;;;;;;20.10;37.30;;;;;;499989;237;1054;-54
2021/03/03 06:58:39;;;;;;;;;;;20.20;37.10;;;;;;500046;237;1060;-54
2021/03/03 07:00:41;;;;;;;;;;;20.20;37.20;;;;;;499949;234;1352;-54
2021/03/03 07:02:43;;;;;;;;;;;20.10;37.30;;;;;;499914;237;1029;-54
2021/03/03 07:04:43;;;;;;;;;;;20.00;37.40;;;;;;499931;237;2355;-54
2021/03/03 07:06:45;;;;;;;;;;;19.90;37.60;;;;;;500008;237;1023;-54
2021/03/03 07:08:46;;;;;;;;;;;19.80;37.70;;;;;;499883;237;1087;-54
2021/03/03 07:10:47;;;;;;;;;;;19.70;36.40;;;;;;499692;237;1074;-54
2021/03/03 07:12:49;;;;;;;;;;;19.70;37.90;;;;;;499738;237;2176;-54
2021/03/03 07:14:50;;;;;;;;;;;19.60;38.00;;;;;;499895;237;1046;-54
2021/03/03 07:16:51;;;;;;;;;;;19.50;36.80;;;;;;499854;237;1299;-54
2021/03/03 07:18:53;;;;;;;;;;;19.50;38.20;;;;;;499797;237;1154;-54
2021/03/03 07:20:54;;;;;;;;;;;19.40;38.30;;;;;;499733;237;1141;-54
2021/03/03 07:22:57;;;;;;;;;;;19.40;38.40;;;;;;499734;237;1120;-54
2021/03/03 07:24:57;;;;;;;;;;;19.40;38.50;;;;;;499900;237;1312;-54
2021/03/03 07:26:58;;;;;;;;;;;19.30;38.60;;;;;;499921;237;1037;-54
2021/03/03 07:28:59;;;;;;;;;;;19.20;37.40;;;;;;499785;237;1030;-54
2021/03/03 07:31:01;;;;;;;;;;;19.20;38.80;;;;;;499683;237;1375;-53
2021/03/03 07:33:02;;;;;;;;;;;19.10;38.80;;;;;;499782;237;2184;-54
2021/03/03 07:35:04;;;;;;;;;;;19.10;38.90;;;;;;499713;237;1000;-54
2021/03/03 07:37:05;;;;;;;;;;;19.00;39.00;;;;;;499689;237;1207;-54
2021/03/03 07:39:06;;;;;;;;;;;19.00;39.00;;;;;;499545;237;1198;-53
2021/03/03 07:41:07;;;;;;;;;;;19.00;39.10;;;;;;499526;237;1063;-54
2021/03/03 07:43:09;;;;;;;;;;;18.90;39.10;;;;;;499455;237;1061;-54
2021/03/03 07:45:10;;;;;;;;;;;18.90;38.00;;;;;;499538;237;1062;-54
2021/03/03 07:47:12;;;;;;;;;;;18.80;39.20;;;;;;499571;237;1173;-54
2021/03/03 07:49:13;;;;;;;;;;;18.80;39.30;;;;;;499632;237;1098;-54
2021/03/03 07:51:14;;;;;;;;;;;18.80;39.40;;;;;;499690;237;1164;-54
2021/03/03 07:53:16;;;;;;;;;;;18.70;39.40;;;;;;499523;237;2133;-54
2021/03/03 07:55:17;;;;;;;;;;;18.70;39.40;;;;;;499633;237;1083;-54
2021/03/03 07:57:18;;;;;;;;;;;18.70;38.20;;;;;;499538;237;1058;-54
2021/03/03 07:59:20;;;;;;;;;;;18.60;39.50;;;;;;499548;237;1171;-54
2021/03/03 08:01:21;;;;;;;;;;;18.60;39.50;;;;;;499446;237;1214;-54
2021/03/03 08:03:22;;;;;;;;;;;18.60;39.60;;;;;;499588;237;1146;-54
2021/03/03 08:05:23;;;;;;;;;;;18.60;39.60;;;;;;499603;237;1285;-54
2021/03/03 08:07:25;;;;;;;;;;;18.60;39.60;;;;;;499565;237;1066;-54
2021/03/03 08:09:26;;;;;;;;;;;18.50;38.40;;;;;;499565;237;1091;-54
2021/03/03 08:11:28;;;;;;;;;;;18.50;39.70;;;;;;499554;237;1056;-54
2021/03/03 08:13:29;;;;;;;;;;;18.50;39.70;;;;;;499535;237;2180;-54
2021/03/03 08:15:30;;;;;;;;;;;18.50;39.80;;;;;;499434;237;1149;-54
2021/03/03 08:17:32;;;;;;;;;;;18.50;39.80;;;;;;499334;237;1208;-54
2021/03/03 08:19:33;;;;;;;;;;;18.50;39.90;;;;;;499524;237;1171;-54
2021/03/03 08:21:35;;;;;;;;;;;18.50;39.90;;;;;;499435;237;1215;-54
2021/03/03 08:23:37;;;;;;;;;;;18.40;39.80;;;;;;499554;237;1082;-54
2021/03/03 08:25:37;;;;;;;;;;;18.40;39.90;;;;;;499504;237;1420;-54
2021/03/03 08:27:38;;;;;;;;;;;18.40;39.90;;;;;;499548;237;1065;-54
2021/03/03 08:29:40;;;;;;;;;;;18.40;39.90;;;;;;499489;237;1087;-54
2021/03/03 08:31:41;;;;;;;;;;;18.40;38.60;;;;;;499119;237;1350;-54
2021/03/03 08:33:43;;;;;;;;;;;18.40;39.90;;;;;;499435;237;2121;-54
2021/03/03 08:35:44;;;;;;;;;;;18.40;39.90;;;;;;499536;237;1137;-54
2021/03/03 08:37:45;;;;;;;;;;;18.40;40.00;;;;;;499565;237;1264;-54
2021/03/03 08:39:46;;;;;;;;;;;18.40;40.00;;;;;;499590;237;1074;-54
2021/03/03 08:41:48;;;;;;;;;;;18.40;40.00;;;;;;499566;237;1098;-54
2021/03/03 08:43:49;;;;;;;;;;;18.40;40.00;;;;;;499552;237;1144;-54
2021/03/03 08:45:51;;;;;;;;;;;18.40;38.70;;;;;;499419;237;1119;-54
2021/03/03 08:47:52;;;;;;;;;;;18.40;40.00;;;;;;499267;237;1281;-54
2021/03/03 08:49:54;;;;;;;;;;;18.40;38.70;;;;;;499420;237;1056;-54
2021/03/03 08:51:55;;;;;;;;;;;18.40;40.00;;;;;;499449;237;1125;-54
2021/03/03 08:53:56;;;;;;;;;;;18.30;39.90;;;;;;499550;237;2132;-54
2021/03/03 08:55:58;;;;;;;;;;;18.30;39.90;;;;;;499548;237;1107;-54
2021/03/03 08:57:59;;;;;;;;;;;18.30;39.90;;;;;;499531;237;1295;-54
2021/03/03 09:00:01;;;;;;;;;;;18.30;39.90;;;;;;499589;237;1046;-54
2021/03/03 09:02:02;;;;;;;;;;;18.40;38.70;;;;;;499563;237;1184;-54
2021/03/03 09:04:03;;;;;;;;;;;18.30;39.90;;;;;;499488;237;1062;-54
2021/03/03 09:06:04;;;;;;;;;;;18.40;38.60;;;;;;499352;237;1222;-54
2021/03/03 09:08:06;;;;;;;;;;;18.40;39.90;;;;;;499429;237;1480;-54
2021/03/03 09:10:07;;;;;;;;;;;18.40;39.90;;;;;;499551;237;1053;-54
2021/03/03 09:12:09;;;;;;;;;;;18.40;39.90;;;;;;499407;237;2148;-54
2021/03/03 09:14:10;;;;;;;;;;;18.40;39.90;;;;;;499545;237;1079;-54
2021/03/03 09:16:12;;;;;;;;;;;18.40;39.90;;;;;;499361;237;1088;-54
2021/03/03 09:18:13;;;;;;;;;;;18.40;38.60;;;;;;499457;237;1174;-54
2021/03/03 09:20:15;;;;;;;;;;;18.40;39.90;;;;;;499383;237;1151;-54
2021/03/03 09:22:16;;;;;;;;;;;18.30;39.80;;;;;;499326;237;1123;-54
2021/03/03 09:24:17;;;;;;;;;;;18.30;38.50;;;;;;499536;237;1083;-54
2021/03/03 09:26:18;;;;;;;;;;;18.30;39.80;;;;;;499551;237;1073;-54
2021/03/03 09:28:20;;;;;;;;;;;18.40;38.50;;;;;;499573;237;1291;-54
2021/03/03 09:30:21;;;;;;;;;;;18.40;39.80;;;;;;499453;237;1057;-54
2021/03/03 09:32:22;;;;;;;;;;;18.40;39.90;;;;;;499424;237;2124;-54
2021/03/03 09:34:23;;;;;;;;;;;18.30;39.80;;;;;;499575;237;1090;-54
2021/03/03 09:36:25;;;;;;;;;;;18.40;39.80;;;;;;499614;237;1059;-54
2021/03/03 09:38:27;;;;;;;;;;;18.40;39.80;;;;;;499562;237;1028;-54
2021/03/03 09:40:27;;;;;;;;;;;18.40;39.80;;;;;;499513;237;1304;-54
2021/03/03 09:42:29;;;;;;;;;;;18.30;39.80;;;;;;499699;237;1095;-54
2021/03/03 09:44:30;;;;;;;;;;;18.30;39.80;;;;;;499610;237;1028;-54
2021/03/03 09:46:31;;;;;;;;;;;18.30;38.40;;;;;;499434;237;1203;-54
2021/03/03 09:48:32;;;;;;;;;;;18.30;38.40;;;;;;499607;237;1189;-54
2021/03/03 09:50:34;;;;;;;;;;;18.30;39.70;;;;;;499599;237;1069;-54
2021/03/03 09:52:35;;;;;;;;;;;18.30;39.80;;;;;;499565;237;2187;-54
2021/03/03 09:54:37;;;;;;;;;;;18.30;39.80;;;;;;499586;237;1067;-52
2021/03/03 09:56:38;;;;;;;;;;;18.30;38.50;;;;;;499612;237;1144;-52
2021/03/03 09:58:39;;;;;;;;;;;18.20;39.80;;;;;;499543;237;1086;-53
2021/03/03 10:00:40;;;;;;;;;;;18.20;39.90;;;;;;499413;237;1119;-53
2021/03/03 10:02:41;;;;;;;;;;;18.20;39.90;;;;;;499342;237;1181;-52
2021/03/03 10:04:43;;;;;;;;;;;18.20;40.00;;;;;;499436;237;1044;-53
2021/03/03 10:06:44;;;;;;;;;;;18.20;40.00;;;;;;499542;237;1136;-52
2021/03/03 10:08:45;;;;;;;;;;;18.10;40.00;;;;;;500361;237;948;-52
2021/03/03 10:10:47;;;;;;;;;;;18.10;40.00;;;;;;499177;237;1077;-53
2021/03/03 10:12:48;;;;;;;;;;;18.10;40.10;;;;;;499335;237;2192;-52
2021/03/03 10:14:49;;;;;;;;;;;18.10;40.00;;;;;;499381;237;1058;-53
2021/03/03 10:16:50;;;;;;;;;;;18.10;39.90;;;;;;499437;237;1216;-52
2021/03/03 10:18:52;;;;;;;;;;;18.20;38.50;;;;;;499422;237;1176;-53
2021/03/03 10:20:53;;;;;;;;;;;18.20;39.70;;;;;;499307;237;1031;-53
2021/03/03 10:22:54;;;;;;;;;;;18.30;39.70;;;;;;499381;237;1065;-53
2021/03/03 10:24:56;;;;;;;;;;;18.30;39.70;;;;;;499496;237;1102;-53
2021/03/03 10:26:57;;;;;;;;;;;18.30;39.60;;;;;;499435;237;1386;-53
2021/03/03 10:28:58;;;;;;;;;;;18.30;39.60;;;;;;499359;237;1413;-52
2021/03/03 10:31:01;;;;;;;;;;;18.40;39.60;;;;;;499381;237;1028;-52
2021/03/03 10:33:01;;;;;;;;;;;18.40;39.50;;;;;;499113;237;2196;-52
2021/03/03 10:35:02;;;;;;;;;;;18.40;39.50;;;;;;499429;237;1055;-53
2021/03/03 10:37:04;;;;;;;;;;;18.40;39.40;;;;;;499400;237;1211;-52
2021/03/03 10:39:05;;;;;;;;;;;18.40;39.40;;;;;;499459;237;1046;-53
2021/03/03 10:41:06;;;;;;;;;;;18.50;39.40;;;;;;499394;237;1179;-53
2021/03/03 10:43:07;;;;;;;;;;;18.50;39.40;;;;;;499444;237;1310;-52
2021/03/03 10:45:09;;;;;;;;;;;18.50;39.30;;;;;;499562;237;1083;-52
2021/03/03 10:47:10;;;;;;;;;;;18.50;39.20;;;;;;499401;237;1223;-52
2021/03/03 10:49:12;;;;;;;;;;;18.50;39.20;;;;;;499329;237;1087;-53
2021/03/03 10:51:13;;;;;;;;;;;18.60;39.20;;;;;;499271;237;1456;-53
2021/03/03 10:53:14;;;;;;;;;;;18.60;39.20;;;;;;499281;237;2183;-53
2021/03/03 10:55:15;;;;;;;;;;;18.60;37.90;;;;;;499491;237;1076;-53
2021/03/03 10:57:17;;;;;;;;;;;18.60;39.10;;;;;;499656;237;1071;-53
2021/03/03 10:59:18;;;;;;;;;;;18.60;39.10;;;;;;499381;237;1076;-52
2021/03/03 11:01:19;;;;;;;;;;;18.60;39.10;;;;;;498771;237;1130;-53
2021/03/03 11:03:20;;;;;;;;;;;18.70;39.10;;;;;;499035;237;1064;-53
2021/03/03 11:05:22;;;;;;;;;;;18.70;39.00;;;;;;499195;237;1185;-53
2021/03/03 11:07:23;;;;;;;;;;;18.70;39.00;;;;;;499235;237;1173;-53
2021/03/03 11:09:24;;;;;;;;;;;18.70;39.00;;;;;;499217;237;1193;-53
2021/03/03 11:11:26;;;;;;;;;;;18.80;37.70;;;;;;499172;237;1106;-53
2021/03/03 11:13:27;;;;;;;;;;;18.80;37.60;;;;;;499449;237;2176;-53
2021/03/03 11:15:28;;;;;;;;;;;18.80;37.60;;;;;;499404;237;1130;-52
2021/03/03 11:17:29;;;;;;;;;;;18.80;37.50;;;;;;499245;237;1071;-53
2021/03/03 11:19:31;;;;;;;;;;;18.80;37.50;;;;;;499429;237;1198;-53
2021/03/03 11:21:32;;;;;;;;;;;18.80;37.50;;;;;;499174;237;1091;-53
2021/03/03 11:23:34;;;;;;;;;;;18.80;37.50;;;;;;499208;238;1202;-53
2021/03/03 11:25:35;;;;;;;;;;;18.90;37.50;;;;;;499102;237;1120;-53
2021/03/03 11:27:36;;;;;;;;;;;18.80;38.70;;;;;;499299;237;1043;-52
2021/03/03 11:29:37;;;;;;;;;;;18.90;37.50;;;;;;499348;237;1171;-53
2021/03/03 11:31:39;;;;;;;;;;;18.90;37.40;;;;;;499361;237;1081;-53
2021/03/03 11:33:40;;;;;;;;;;;18.90;38.80;;;;;;499372;237;2180;-53
2021/03/03 11:35:42;;;;;;;;;;;18.90;37.40;;;;;;499173;237;1237;-53
2021/03/03 11:37:43;;;;;;;;;;;18.90;38.70;;;;;;499298;237;1056;-53
2021/03/03 11:39:44;;;;;;;;;;;19.00;38.70;;;;;;499335;237;1053;-53
2021/03/03 11:41:45;;;;;;;;;;;19.00;37.30;;;;;;499310;237;1225;-53
2021/03/03 11:43:47;;;;;;;;;;;19.00;38.70;;;;;;499446;237;1055;-53
2021/03/03 11:45:48;;;;;;;;;;;19.00;37.30;;;;;;499413;237;1059;-53
2021/03/03 11:47:50;;;;;;;;;;;19.00;38.60;;;;;;499350;237;1118;-53
2021/03/03 11:49:51;;;;;;;;;;;19.00;38.60;;;;;;499602;237;1189;-53
2021/03/03 11:51:52;;;;;;;;;;;19.00;37.20;;;;;;499443;237;1101;-53
2021/03/03 11:53:53;;;;;;;;;;;19.00;38.60;;;;;;499536;237;2184;-53
2021/03/03 11:55:55;;;;;;;;;;;19.10;38.60;;;;;;499334;237;1065;-53